createdAt,value
2022-12-01T00:00:29.190Z,6.32
2022-12-01T00:01:01.374Z,6.32
2022-12-01T00:01:33.474Z,6.35
2022-12-01T00:02:05.696Z,6.33
2022-12-01T00:02:37.850Z,6.35
2022-12-01T00:03:09.916Z,6.36
2022-12-01T00:03:41.935Z,6.36
2022-12-01T00:04:14.003Z,6.35
2022-12-01T00:04:46.117Z,6.38
2022-12-01T00:05:18.263Z,6.36
2022-12-01T00:05:50.438Z,6.35
2022-12-01T00:06:22.533Z,6.35
2022-12-01T00:06:54.669Z,6.36
2022-12-01T00:07:26.854Z,6.38
2022-12-01T00:07:59.036Z,6.36
2022-12-01T00:08:31.125Z,6.36
2022-12-01T00:09:03.268Z,6.38
2022-12-01T00:09:35.382Z,6.38
2022-12-01T00:10:07.535Z,6.40
2022-12-01T00:10:39.609Z,6.40
2022-12-01T00:11:11.678Z,6.40
2022-12-01T00:11:43.844Z,6.40
2022-12-01T00:12:15.989Z,6.40
2022-12-01T00:12:48.127Z,6.40
2022-12-01T00:13:20.430Z,6.40
2022-12-01T00:13:52.516Z,6.38
2022-12-01T00:14:24.636Z,6.36
2022-12-01T00:14:56.781Z,6.33
2022-12-01T00:15:28.928Z,6.33
2022-12-01T00:16:01.072Z,6.30
2022-12-01T00:16:33.233Z,6.29
2022-12-01T00:17:05.291Z,6.28
2022-12-01T00:17:37.435Z,6.26
2022-12-01T00:18:09.550Z,6.25
2022-12-01T00:18:41.679Z,6.25
2022-12-01T00:19:13.873Z,6.22
2022-12-01T00:19:46.217Z,6.25
2022-12-01T00:20:18.268Z,6.25
2022-12-01T00:20:50.377Z,6.26
2022-12-01T00:21:22.464Z,6.25
2022-12-01T00:21:54.572Z,6.25
2022-12-01T00:22:26.683Z,6.25
2022-12-01T00:22:58.872Z,6.26
2022-12-01T00:23:31.019Z,6.26
2022-12-01T00:24:03.185Z,6.26
2022-12-01T00:24:35.336Z,6.26
2022-12-01T00:25:07.486Z,6.26
2022-12-01T00:25:39.698Z,6.25
2022-12-01T00:26:11.878Z,6.26
2022-12-01T00:26:44.003Z,6.26
2022-12-01T00:27:16.098Z,6.26
2022-12-01T00:27:48.312Z,6.26
2022-12-01T00:28:20.469Z,6.28
2022-12-01T00:28:52.597Z,6.26
2022-12-01T00:29:24.809Z,6.29
2022-12-01T00:29:56.950Z,6.28
2022-12-01T00:30:29.182Z,6.29
2022-12-01T00:31:01.299Z,6.30
2022-12-01T00:31:33.486Z,6.29
2022-12-01T00:32:05.607Z,6.26
2022-12-01T00:32:37.595Z,6.25
2022-12-01T00:33:09.671Z,6.28
2022-12-01T00:33:41.882Z,6.25
2022-12-01T00:34:14.023Z,6.25
2022-12-01T00:34:46.182Z,6.26
2022-12-01T00:35:18.311Z,6.25
2022-12-01T00:35:50.482Z,6.25
2022-12-01T00:36:22.673Z,6.26
2022-12-01T00:36:54.914Z,6.28
2022-12-01T00:37:27.135Z,6.28
2022-12-01T00:37:59.254Z,6.29
2022-12-01T00:38:31.339Z,6.28
2022-12-01T00:39:03.470Z,6.29
2022-12-01T00:39:35.607Z,6.30
2022-12-01T00:40:07.873Z,6.30
2022-12-01T00:40:40.072Z,6.29
2022-12-01T00:41:12.199Z,6.30
2022-12-01T00:41:44.299Z,6.32
2022-12-01T00:42:16.385Z,6.30
2022-12-01T00:42:48.472Z,6.28
2022-12-01T00:43:20.603Z,6.29
2022-12-01T00:43:52.747Z,6.29
2022-12-01T00:44:24.872Z,6.29
2022-12-01T00:44:56.977Z,6.28
2022-12-01T00:45:29.142Z,6.29
2022-12-01T00:46:01.320Z,6.29
2022-12-01T00:46:33.441Z,6.29
2022-12-01T00:47:05.505Z,6.29
2022-12-01T00:47:37.638Z,6.30
2022-12-01T00:48:09.811Z,6.28
2022-12-01T00:48:41.947Z,6.30
2022-12-01T00:49:14.144Z,6.30
2022-12-01T00:49:46.527Z,6.30
2022-12-01T00:50:18.487Z,6.30
2022-12-01T00:50:50.658Z,6.30
2022-12-01T00:51:22.797Z,6.30
2022-12-01T00:51:55.031Z,6.32
2022-12-01T00:52:27.225Z,6.30
2022-12-01T00:52:59.382Z,6.32
2022-12-01T00:53:31.470Z,6.29
2022-12-01T00:54:03.643Z,6.32
2022-12-01T00:54:35.734Z,6.30
2022-12-01T00:55:07.838Z,6.30
2022-12-01T00:55:39.992Z,6.32
2022-12-01T00:56:12.155Z,6.32
2022-12-01T00:56:44.286Z,6.33
2022-12-01T00:57:16.371Z,6.33
2022-12-01T00:57:48.484Z,6.33
2022-12-01T00:58:20.607Z,6.35
2022-12-01T00:58:52.714Z,6.35
2022-12-01T00:59:24.807Z,6.35
2022-12-01T00:59:56.942Z,6.33
2022-12-01T01:00:29.120Z,6.38
2022-12-01T01:01:01.359Z,6.36
2022-12-01T01:01:34.122Z,6.36
2022-12-01T01:02:06.283Z,6.36
2022-12-01T01:02:38.620Z,6.35
2022-12-01T01:03:11.386Z,6.36
2022-12-01T01:03:43.496Z,6.35
2022-12-01T01:04:15.590Z,6.33
2022-12-01T01:04:47.676Z,6.35
2022-12-01T01:05:19.766Z,6.33
2022-12-01T01:05:51.926Z,6.35
2022-12-01T01:06:24.152Z,6.32
2022-12-01T01:06:56.276Z,6.32
2022-12-01T01:07:28.443Z,6.33
2022-12-01T01:08:00.610Z,6.35
2022-12-01T01:08:32.733Z,6.32
2022-12-01T01:09:04.812Z,6.35
2022-12-01T01:09:36.979Z,6.33
2022-12-01T01:10:09.100Z,6.36
2022-12-01T01:10:41.219Z,6.32
2022-12-01T01:11:13.441Z,6.33
2022-12-01T01:11:45.607Z,6.30
2022-12-01T01:12:17.742Z,6.29
2022-12-01T01:12:49.864Z,6.30
2022-12-01T01:13:21.940Z,6.32
2022-12-01T01:13:54.097Z,6.30
2022-12-01T01:14:26.237Z,6.30
2022-12-01T01:14:58.495Z,6.29
2022-12-01T01:15:30.758Z,6.28
2022-12-01T01:16:02.853Z,6.28
2022-12-01T01:16:35.099Z,6.29
2022-12-01T01:17:07.258Z,6.28
2022-12-01T01:17:39.366Z,6.26
2022-12-01T01:18:11.560Z,6.26
2022-12-01T01:18:43.734Z,6.26
2022-12-01T01:19:15.993Z,6.25
2022-12-01T01:19:48.526Z,6.26
2022-12-01T01:20:20.367Z,6.26
2022-12-01T01:20:52.499Z,6.28
2022-12-01T01:21:24.632Z,6.26
2022-12-01T01:21:56.769Z,6.29
2022-12-01T01:22:28.907Z,6.30
2022-12-01T01:23:01.074Z,6.29
2022-12-01T01:23:33.242Z,6.29
2022-12-01T01:24:05.377Z,6.30
2022-12-01T01:24:37.534Z,6.29
2022-12-01T01:25:09.684Z,6.29
2022-12-01T01:25:41.837Z,6.29
2022-12-01T01:26:13.997Z,6.29
2022-12-01T01:26:46.153Z,6.29
2022-12-01T01:27:18.363Z,6.29
2022-12-01T01:27:50.504Z,6.29
2022-12-01T01:28:22.632Z,6.30
2022-12-01T01:28:54.809Z,6.29
2022-12-01T01:29:26.994Z,6.28
2022-12-01T01:29:59.157Z,6.29
2022-12-01T01:30:31.340Z,6.26
2022-12-01T01:31:03.434Z,6.25
2022-12-01T01:31:35.573Z,6.26
2022-12-01T01:32:07.792Z,6.19
2022-12-01T01:32:40.057Z,6.22
2022-12-01T01:33:12.176Z,6.21
2022-12-01T01:33:44.273Z,6.25
2022-12-01T01:34:16.355Z,6.25
2022-12-01T01:34:48.499Z,6.22
2022-12-01T01:35:20.765Z,6.25
2022-12-01T01:35:52.887Z,6.25
2022-12-01T01:36:24.968Z,6.25
2022-12-01T01:36:57.222Z,6.26
2022-12-01T01:37:29.371Z,6.26
2022-12-01T01:38:01.511Z,6.26
2022-12-01T01:38:33.646Z,6.25
2022-12-01T01:39:05.785Z,6.25
2022-12-01T01:39:37.958Z,6.22
2022-12-01T01:40:10.113Z,6.25
2022-12-01T01:40:42.287Z,6.25
2022-12-01T01:41:14.443Z,6.26
2022-12-01T01:41:46.567Z,6.25
2022-12-01T01:42:18.649Z,6.26
2022-12-01T01:42:50.727Z,6.26
2022-12-01T01:43:22.847Z,6.26
2022-12-01T01:43:54.953Z,6.25
2022-12-01T01:44:27.052Z,6.26
2022-12-01T01:44:59.148Z,6.26
2022-12-01T01:45:31.288Z,6.26
2022-12-01T01:46:03.421Z,6.26
2022-12-01T01:46:35.479Z,6.26
2022-12-01T01:47:07.610Z,6.28
2022-12-01T01:47:39.765Z,6.29
2022-12-01T01:48:11.881Z,6.29
2022-12-01T01:48:44.057Z,6.26
2022-12-01T01:49:16.186Z,6.26
2022-12-01T01:49:48.642Z,6.26
2022-12-01T01:50:20.419Z,6.26
2022-12-01T01:50:52.561Z,6.29
2022-12-01T01:51:24.662Z,6.29
2022-12-01T01:51:56.832Z,6.30
2022-12-01T01:52:29.025Z,6.30
2022-12-01T01:53:01.199Z,6.30
2022-12-01T01:53:33.394Z,6.33
2022-12-01T01:54:05.590Z,6.33
2022-12-01T01:54:37.709Z,6.33
2022-12-01T01:55:09.777Z,6.33
2022-12-01T01:55:41.882Z,6.35
2022-12-01T01:56:13.987Z,6.33
2022-12-01T01:56:46.068Z,6.35
2022-12-01T01:57:18.167Z,6.38
2022-12-01T01:57:50.319Z,6.36
2022-12-01T01:58:22.488Z,6.36
2022-12-01T01:58:54.629Z,6.35
2022-12-01T01:59:26.721Z,6.36
2022-12-01T01:59:58.870Z,6.35
2022-12-01T02:00:31.035Z,6.33
2022-12-01T02:01:03.222Z,6.33
2022-12-01T02:01:35.426Z,6.33
2022-12-01T02:02:07.599Z,6.33
2022-12-01T02:02:39.704Z,6.33
2022-12-01T02:03:11.807Z,6.33
2022-12-01T02:03:43.948Z,6.33
2022-12-01T02:04:16.035Z,6.35
2022-12-01T02:04:48.177Z,6.35
2022-12-01T02:05:20.307Z,6.36
2022-12-01T02:05:52.396Z,6.35
2022-12-01T02:06:24.495Z,6.35
2022-12-01T02:06:56.609Z,6.36
2022-12-01T02:07:28.788Z,6.32
2022-12-01T02:08:00.920Z,6.32
2022-12-01T02:08:52.444Z,6.28
2022-12-01T02:09:24.533Z,6.26
2022-12-01T02:09:56.732Z,6.26
2022-12-01T02:10:28.846Z,6.26
2022-12-01T02:11:01.032Z,6.25
2022-12-01T02:11:33.224Z,6.25
2022-12-01T02:12:05.427Z,6.22
2022-12-01T02:12:37.636Z,6.22
2022-12-01T02:13:09.706Z,6.25
2022-12-01T02:13:41.868Z,6.26
2022-12-01T02:14:14.005Z,6.25
2022-12-01T02:14:46.152Z,6.26
2022-12-01T02:15:18.263Z,6.22
2022-12-01T02:15:50.449Z,6.22
2022-12-01T02:16:22.784Z,6.22
2022-12-01T02:16:55.005Z,6.21
2022-12-01T02:17:27.084Z,6.19
2022-12-01T02:17:59.229Z,6.19
2022-12-01T02:18:31.395Z,6.19
2022-12-01T02:19:03.547Z,6.19
2022-12-01T02:19:35.750Z,6.19
2022-12-01T02:20:07.915Z,6.21
2022-12-01T02:20:40.273Z,6.19
2022-12-01T02:21:12.443Z,6.22
2022-12-01T02:21:44.650Z,6.19
2022-12-01T02:22:16.772Z,6.18
2022-12-01T02:22:53.508Z,6.19
2022-12-01T02:23:20.983Z,6.19
2022-12-01T02:23:53.124Z,6.16
2022-12-01T02:24:25.202Z,6.21
2022-12-01T02:24:57.373Z,6.21
2022-12-01T02:25:29.479Z,6.22
2022-12-01T02:26:01.579Z,6.22
2022-12-01T02:26:33.721Z,6.22
2022-12-01T02:27:05.894Z,6.19
2022-12-01T02:27:38.059Z,6.21
2022-12-01T02:28:10.364Z,6.21
2022-12-01T02:28:42.479Z,6.21
2022-12-01T02:29:14.592Z,6.21
2022-12-01T02:29:47.012Z,6.25
2022-12-01T02:30:18.851Z,6.25
2022-12-01T02:30:51.212Z,6.25
2022-12-01T02:31:23.263Z,6.25
2022-12-01T02:31:55.419Z,6.25
2022-12-01T02:32:27.588Z,6.26
2022-12-01T02:32:59.731Z,6.26
2022-12-01T02:33:31.864Z,6.25
2022-12-01T02:34:03.979Z,6.26
2022-12-01T02:34:36.095Z,6.22
2022-12-01T02:35:08.216Z,6.22
2022-12-01T02:35:40.257Z,6.21
2022-12-01T02:36:12.370Z,6.22
2022-12-01T02:36:44.519Z,6.22
2022-12-01T02:37:16.657Z,6.22
2022-12-01T02:37:48.788Z,6.21
2022-12-01T02:38:20.967Z,6.19
2022-12-01T02:38:53.063Z,6.18
2022-12-01T02:39:25.194Z,6.19
2022-12-01T02:39:57.478Z,6.16
2022-12-01T02:40:29.608Z,6.19
2022-12-01T02:41:01.759Z,6.18
2022-12-01T02:41:33.904Z,6.18
2022-12-01T02:42:06.024Z,6.19
2022-12-01T02:42:38.217Z,6.19
2022-12-01T02:43:10.397Z,6.22
2022-12-01T02:43:42.510Z,6.19
2022-12-01T02:44:14.599Z,6.19
2022-12-01T02:44:46.699Z,6.22
2022-12-01T02:45:18.786Z,6.25
2022-12-01T02:45:50.974Z,6.22
2022-12-01T02:46:23.223Z,6.22
2022-12-01T02:46:55.228Z,6.22
2022-12-01T02:47:27.402Z,6.19
2022-12-01T02:47:59.532Z,6.21
2022-12-01T02:48:31.662Z,6.21
2022-12-01T02:49:03.756Z,6.21
2022-12-01T02:49:35.990Z,6.18
2022-12-01T02:50:08.157Z,6.18
2022-12-01T02:50:40.316Z,6.18
2022-12-01T02:51:12.485Z,6.18
2022-12-01T02:51:44.663Z,6.16
2022-12-01T02:52:16.762Z,6.16
2022-12-01T02:52:48.913Z,6.13
2022-12-01T02:53:21.057Z,6.16
2022-12-01T02:53:53.206Z,6.16
2022-12-01T02:54:25.372Z,6.18
2022-12-01T02:54:57.542Z,6.18
2022-12-01T02:55:29.683Z,6.18
2022-12-01T02:56:01.819Z,6.18
2022-12-01T02:56:34.001Z,6.19
2022-12-01T02:57:06.171Z,6.18
2022-12-01T02:57:38.406Z,6.14
2022-12-01T02:58:10.538Z,6.14
2022-12-01T02:58:42.704Z,6.11
2022-12-01T02:59:14.848Z,6.13
2022-12-01T02:59:47.281Z,6.10
2022-12-01T03:00:19.271Z,6.10
2022-12-01T03:00:51.540Z,6.11
2022-12-01T03:01:23.759Z,6.11
2022-12-01T03:01:55.864Z,6.13
2022-12-01T03:02:28.062Z,6.11
2022-12-01T03:03:00.199Z,6.16
2022-12-01T03:03:32.285Z,6.13
2022-12-01T03:04:04.416Z,6.13
2022-12-01T03:04:36.618Z,6.10
2022-12-01T03:05:08.775Z,6.10
2022-12-01T03:05:40.927Z,6.10
2022-12-01T03:06:13.075Z,6.09
2022-12-01T03:06:45.296Z,6.09
2022-12-01T03:07:17.459Z,6.10
2022-12-01T03:07:49.683Z,6.10
2022-12-01T03:08:21.745Z,6.10
2022-12-01T03:08:53.890Z,6.09
2022-12-01T03:09:26.109Z,6.11
2022-12-01T03:09:58.278Z,6.07
2022-12-01T03:10:30.435Z,6.10
2022-12-01T03:11:02.620Z,6.07
2022-12-01T03:11:34.777Z,6.06
2022-12-01T03:12:06.931Z,6.06
2022-12-01T03:12:39.091Z,6.04
2022-12-01T03:13:11.264Z,6.00
2022-12-01T03:13:43.448Z,6.00
2022-12-01T03:14:15.580Z,5.98
2022-12-01T03:14:47.742Z,5.96
2022-12-01T03:15:19.880Z,5.98
2022-12-01T03:15:52.076Z,5.95
2022-12-01T03:16:24.259Z,5.95
2022-12-01T03:16:56.391Z,5.96
2022-12-01T03:17:28.539Z,5.98
2022-12-01T03:18:00.744Z,6.00
2022-12-01T03:18:32.876Z,5.95
2022-12-01T03:19:05.039Z,5.98
2022-12-01T03:19:37.148Z,5.98
2022-12-01T03:20:09.238Z,6.00
2022-12-01T03:20:41.382Z,6.01
2022-12-01T03:21:13.662Z,6.03
2022-12-01T03:21:45.772Z,6.04
2022-12-01T03:22:20.312Z,6.09
2022-12-01T03:22:52.428Z,6.07
2022-12-01T03:23:24.590Z,6.09
2022-12-01T03:23:56.707Z,6.09
2022-12-01T03:24:28.828Z,6.07
2022-12-01T03:25:00.987Z,6.07
2022-12-01T03:25:33.180Z,6.09
2022-12-01T03:26:05.302Z,6.04
2022-12-01T03:26:37.387Z,6.03
2022-12-01T03:27:09.581Z,6.04
2022-12-01T03:27:50.757Z,6.03
2022-12-01T03:28:21.076Z,6.03
2022-12-01T03:28:46.068Z,6.03
2022-12-01T03:29:18.220Z,6.01
2022-12-01T03:29:50.545Z,6.01
2022-12-01T03:30:22.473Z,6.03
2022-12-01T03:30:54.651Z,6.04
2022-12-01T03:31:26.761Z,6.03
2022-12-01T03:31:58.881Z,6.04
2022-12-01T03:32:31.018Z,6.04
2022-12-01T03:33:03.182Z,6.03
2022-12-01T03:33:35.285Z,6.03
2022-12-01T03:34:07.454Z,6.01
2022-12-01T03:34:39.623Z,6.00
2022-12-01T03:35:11.824Z,6.00
2022-12-01T03:35:44.048Z,6.00
2022-12-01T03:36:16.194Z,5.98
2022-12-01T03:36:48.306Z,5.95
2022-12-01T03:37:20.406Z,5.95
2022-12-01T03:37:52.520Z,5.93
2022-12-01T03:38:24.682Z,5.93
2022-12-01T03:38:56.807Z,5.93
2022-12-01T03:39:28.960Z,5.96
2022-12-01T03:40:01.485Z,5.96
2022-12-01T03:40:33.371Z,5.96
2022-12-01T03:41:05.531Z,5.96
2022-12-01T03:41:37.704Z,5.96
2022-12-01T03:42:09.817Z,5.96
2022-12-01T03:42:41.914Z,5.95
2022-12-01T03:43:14.128Z,5.96
2022-12-01T03:43:46.220Z,5.96
2022-12-01T03:44:18.303Z,5.95
2022-12-01T03:44:50.403Z,5.95
2022-12-01T03:45:22.523Z,5.93
2022-12-01T03:45:54.639Z,5.92
2022-12-01T03:46:26.743Z,5.91
2022-12-01T03:46:58.818Z,5.89
2022-12-01T03:47:30.982Z,5.88
2022-12-01T03:48:03.139Z,5.88
2022-12-01T03:48:35.274Z,5.85
2022-12-01T03:49:07.374Z,5.82
2022-12-01T03:49:39.636Z,5.81
2022-12-01T03:50:11.744Z,5.81
2022-12-01T03:50:43.856Z,5.81
2022-12-01T03:51:15.960Z,5.81
2022-12-01T03:51:48.056Z,5.82
2022-12-01T03:52:20.162Z,5.81
2022-12-01T03:52:52.287Z,5.85
2022-12-01T03:53:24.367Z,5.83
2022-12-01T03:53:56.483Z,5.82
2022-12-01T03:54:28.603Z,5.81
2022-12-01T03:55:00.708Z,5.81
2022-12-01T03:55:32.962Z,5.81
2022-12-01T03:56:05.097Z,5.78
2022-12-01T03:56:37.181Z,5.77
2022-12-01T03:57:09.266Z,5.74
2022-12-01T03:57:41.369Z,5.75
2022-12-01T03:58:13.460Z,5.75
2022-12-01T03:58:45.541Z,5.74
2022-12-01T03:59:17.667Z,5.75
2022-12-01T03:59:50.053Z,5.77
2022-12-01T04:00:22.016Z,5.77
2022-12-01T04:00:54.188Z,5.78
2022-12-01T04:01:26.380Z,5.81
2022-12-01T04:01:58.501Z,5.83
2022-12-01T04:02:30.546Z,5.78
2022-12-01T04:03:02.727Z,5.78
2022-12-01T04:03:34.802Z,5.78
2022-12-01T04:04:06.972Z,5.77
2022-12-01T04:04:39.092Z,5.78
2022-12-01T04:05:11.213Z,5.81
2022-12-01T04:05:43.349Z,5.78
2022-12-01T04:06:15.527Z,5.82
2022-12-01T04:06:47.784Z,5.78
2022-12-01T04:07:19.984Z,5.78
2022-12-01T04:07:52.127Z,5.78
2022-12-01T04:08:24.321Z,5.78
2022-12-01T04:08:56.421Z,5.75
2022-12-01T04:09:28.515Z,5.77
2022-12-01T04:10:00.622Z,5.75
2022-12-01T04:10:32.811Z,5.75
2022-12-01T04:11:04.944Z,5.78
2022-12-01T04:11:37.084Z,5.81
2022-12-01T04:12:09.287Z,5.81
2022-12-01T04:12:41.487Z,5.83
2022-12-01T04:13:13.614Z,5.83
2022-12-01T04:13:45.776Z,5.85
2022-12-01T04:14:17.907Z,5.86
2022-12-01T04:14:50.044Z,5.85
2022-12-01T04:15:22.243Z,5.83
2022-12-01T04:15:54.442Z,5.83
2022-12-01T04:16:26.496Z,5.83
2022-12-01T04:16:58.584Z,5.83
2022-12-01T04:17:30.687Z,5.82
2022-12-01T04:18:02.912Z,5.82
2022-12-01T04:18:35.050Z,5.83
2022-12-01T04:19:07.197Z,5.86
2022-12-01T04:19:39.445Z,5.86
2022-12-01T04:20:11.549Z,5.85
2022-12-01T04:20:43.646Z,5.83
2022-12-01T04:21:15.771Z,5.83
2022-12-01T04:21:47.896Z,5.82
2022-12-01T04:22:20.017Z,5.78
2022-12-01T04:22:52.117Z,5.78
2022-12-01T04:23:24.299Z,5.77
2022-12-01T04:23:56.460Z,5.77
2022-12-01T04:24:28.607Z,5.78
2022-12-01T04:25:00.719Z,5.78
2022-12-01T04:25:32.860Z,5.77
2022-12-01T04:26:05.010Z,5.78
2022-12-01T04:26:37.110Z,5.77
2022-12-01T04:27:09.246Z,5.75
2022-12-01T04:27:41.463Z,5.77
2022-12-01T04:28:13.598Z,5.77
2022-12-01T04:28:45.706Z,5.78
2022-12-01T04:29:17.834Z,5.81
2022-12-01T04:29:50.122Z,5.81
2022-12-01T04:30:22.256Z,5.81
2022-12-01T04:30:54.464Z,5.82
2022-12-01T04:31:26.643Z,5.82
2022-12-01T04:31:58.721Z,5.83
2022-12-01T04:32:30.888Z,5.83
2022-12-01T04:33:02.970Z,5.86
2022-12-01T04:33:35.110Z,5.86
2022-12-01T04:34:07.279Z,5.85
2022-12-01T04:34:39.514Z,5.82
2022-12-01T04:35:11.653Z,5.82
2022-12-01T04:35:43.734Z,5.78
2022-12-01T04:36:15.828Z,5.81
2022-12-01T04:36:47.995Z,5.81
2022-12-01T04:37:20.115Z,5.83
2022-12-01T04:37:52.211Z,5.82
2022-12-01T04:38:28.931Z,5.83
2022-12-01T04:38:56.623Z,5.83
2022-12-01T04:39:28.800Z,5.83
2022-12-01T04:40:00.994Z,5.86
2022-12-01T04:40:33.097Z,5.88
2022-12-01T04:41:05.216Z,5.86
2022-12-01T04:41:37.337Z,5.85
2022-12-01T04:42:09.470Z,5.86
2022-12-01T04:42:41.594Z,5.85
2022-12-01T04:43:13.694Z,5.88
2022-12-01T04:43:45.866Z,5.86
2022-12-01T04:44:18.021Z,5.86
2022-12-01T04:44:50.168Z,5.88
2022-12-01T04:45:22.355Z,5.89
2022-12-01T04:45:54.521Z,5.91
2022-12-01T04:46:26.663Z,5.89
2022-12-01T04:46:58.856Z,5.93
2022-12-01T04:47:30.992Z,5.93
2022-12-01T04:48:03.285Z,5.91
2022-12-01T04:48:35.385Z,5.93
2022-12-01T04:49:07.534Z,5.92
2022-12-01T04:49:39.773Z,5.95
2022-12-01T04:50:11.873Z,5.93
2022-12-01T04:50:44.051Z,5.96
2022-12-01T04:51:16.193Z,5.93
2022-12-01T04:51:48.464Z,5.93
2022-12-01T04:52:20.609Z,5.93
2022-12-01T04:52:52.714Z,5.93
2022-12-01T04:53:24.842Z,5.93
2022-12-01T04:53:56.995Z,5.92
2022-12-01T04:54:29.211Z,5.93
2022-12-01T04:55:01.367Z,5.93
2022-12-01T04:55:33.493Z,5.93
2022-12-01T04:56:05.626Z,5.95
2022-12-01T04:56:37.715Z,5.96
2022-12-01T04:57:09.862Z,5.96
2022-12-01T04:57:41.997Z,5.96
2022-12-01T04:58:14.146Z,5.95
2022-12-01T04:58:46.293Z,5.96
2022-12-01T04:59:18.414Z,5.95
2022-12-01T04:59:50.822Z,5.93
2022-12-01T05:00:22.676Z,5.89
2022-12-01T05:00:54.824Z,5.89
2022-12-01T05:01:26.938Z,5.89
2022-12-01T05:01:59.118Z,5.89
2022-12-01T05:02:31.249Z,5.88
2022-12-01T05:03:03.447Z,5.88
2022-12-01T05:03:35.570Z,5.89
2022-12-01T05:04:07.720Z,5.88
2022-12-01T05:04:40.913Z,5.85
2022-12-01T05:05:12.989Z,5.86
2022-12-01T05:05:45.092Z,5.85
2022-12-01T05:06:17.189Z,5.86
2022-12-01T05:06:49.341Z,5.85
2022-12-01T05:07:21.496Z,5.85
2022-12-01T05:07:53.682Z,5.85
2022-12-01T05:08:25.814Z,5.85
2022-12-01T05:08:57.939Z,5.86
2022-12-01T05:09:30.129Z,5.88
2022-12-01T05:10:02.309Z,5.88
2022-12-01T05:10:34.472Z,5.91
2022-12-01T05:11:06.611Z,5.88
2022-12-01T05:11:38.792Z,5.91
2022-12-01T05:12:10.922Z,5.89
2022-12-01T05:12:43.081Z,5.91
2022-12-01T05:13:15.248Z,5.89
2022-12-01T05:13:47.387Z,5.92
2022-12-01T05:14:19.474Z,5.93
2022-12-01T05:14:51.590Z,5.92
2022-12-01T05:15:30.715Z,5.92
2022-12-01T05:16:02.871Z,5.91
2022-12-01T05:16:35.032Z,5.91
2022-12-01T05:17:07.162Z,5.92
2022-12-01T05:17:39.298Z,5.92
2022-12-01T05:18:11.436Z,5.93
2022-12-01T05:18:43.738Z,5.95
2022-12-01T05:19:16.027Z,5.95
2022-12-01T05:19:48.146Z,5.95
2022-12-01T05:20:20.029Z,5.96
2022-12-01T05:20:52.184Z,5.95
2022-12-01T05:21:24.302Z,5.95
2022-12-01T05:21:56.390Z,5.93
2022-12-01T05:23:03.210Z,5.91
2022-12-01T05:23:10.852Z,5.91
2022-12-01T05:23:32.793Z,5.89
2022-12-01T05:24:04.876Z,5.88
2022-12-01T05:24:36.971Z,5.85
2022-12-01T05:25:09.097Z,5.83
2022-12-01T05:25:41.268Z,5.82
2022-12-01T05:26:13.445Z,5.81
2022-12-01T05:26:45.639Z,5.81
2022-12-01T05:27:17.801Z,5.81
2022-12-01T05:27:49.940Z,5.81
2022-12-01T05:28:22.093Z,5.78
2022-12-01T05:28:54.190Z,5.78
2022-12-01T05:29:26.341Z,5.78
2022-12-01T05:29:58.449Z,5.81
2022-12-01T05:30:30.546Z,5.81
2022-12-01T05:31:02.719Z,5.78
2022-12-01T05:31:34.815Z,5.82
2022-12-01T05:32:07.044Z,5.81
2022-12-01T05:32:39.253Z,5.78
2022-12-01T05:33:11.348Z,5.82
2022-12-01T05:33:43.461Z,5.82
2022-12-01T05:34:15.571Z,5.82
2022-12-01T05:34:47.659Z,5.82
2022-12-01T05:35:19.765Z,5.82
2022-12-01T05:35:51.885Z,5.81
2022-12-01T05:36:23.969Z,5.81
2022-12-01T05:36:56.113Z,5.78
2022-12-01T05:37:28.229Z,5.78
2022-12-01T05:38:04.567Z,5.78
2022-12-01T05:38:32.464Z,5.78
2022-12-01T05:39:04.571Z,5.81
2022-12-01T05:39:36.798Z,5.77
2022-12-01T05:40:08.951Z,5.78
2022-12-01T05:40:41.171Z,5.75
2022-12-01T05:41:13.539Z,5.73
2022-12-01T05:41:45.689Z,5.74
2022-12-01T05:42:17.789Z,5.73
2022-12-01T05:42:49.960Z,5.71
2022-12-01T05:43:28.321Z,5.73
2022-12-01T05:43:54.288Z,5.73
2022-12-01T05:44:26.418Z,5.70
2022-12-01T05:44:58.552Z,5.67
2022-12-01T05:45:30.712Z,5.67
2022-12-01T05:46:02.819Z,5.68
2022-12-01T05:46:34.947Z,5.68
2022-12-01T05:47:07.118Z,5.70
2022-12-01T05:47:39.307Z,5.71
2022-12-01T05:48:11.427Z,5.71
2022-12-01T05:48:43.574Z,5.73
2022-12-01T05:49:15.712Z,5.74
2022-12-01T05:49:48.061Z,5.73
2022-12-01T05:50:20.003Z,5.75
2022-12-01T05:50:52.160Z,5.77
2022-12-01T05:51:24.312Z,5.78
2022-12-01T05:51:56.453Z,5.77
2022-12-01T05:52:28.628Z,5.78
2022-12-01T05:53:00.751Z,5.77
2022-12-01T05:53:32.909Z,5.74
2022-12-01T05:54:05.048Z,5.71
2022-12-01T05:54:37.202Z,5.73
2022-12-01T05:55:09.352Z,5.70
2022-12-01T05:55:41.593Z,5.68
2022-12-01T05:56:13.751Z,5.67
2022-12-01T05:56:45.874Z,5.68
2022-12-01T05:57:17.952Z,5.68
2022-12-01T05:57:50.146Z,5.68
2022-12-01T05:58:22.282Z,5.67
2022-12-01T05:58:54.547Z,5.67
2022-12-01T05:59:26.693Z,5.66
2022-12-01T05:59:58.839Z,5.66
2022-12-01T06:00:30.958Z,5.64
2022-12-01T06:01:03.165Z,5.64
2022-12-01T06:01:35.363Z,5.63
2022-12-01T06:02:07.567Z,5.59
2022-12-01T06:02:39.597Z,5.60
2022-12-01T06:03:11.721Z,5.64
2022-12-01T06:03:43.928Z,5.63
2022-12-01T06:04:16.028Z,5.63
2022-12-01T06:04:48.146Z,5.64
2022-12-01T06:05:20.286Z,5.66
2022-12-01T06:05:52.442Z,5.63
2022-12-01T06:06:24.619Z,5.63
2022-12-01T06:06:56.794Z,5.60
2022-12-01T06:07:29.030Z,5.60
2022-12-01T06:08:01.247Z,5.60
2022-12-01T06:08:33.307Z,5.63
2022-12-01T06:09:05.422Z,5.63
2022-12-01T06:09:37.515Z,5.63
2022-12-01T06:10:09.667Z,5.64
2022-12-01T06:10:41.748Z,5.66
2022-12-01T06:11:14.000Z,5.66
2022-12-01T06:11:50.043Z,5.67
2022-12-01T06:12:18.287Z,5.67
2022-12-01T06:12:50.441Z,5.68
2022-12-01T06:13:22.595Z,5.66
2022-12-01T06:13:54.743Z,5.67
2022-12-01T06:14:26.875Z,5.68
2022-12-01T06:14:59.036Z,5.73
2022-12-01T06:15:31.177Z,5.73
2022-12-01T06:16:03.317Z,5.73
2022-12-01T06:16:35.517Z,5.73
2022-12-01T06:17:07.573Z,5.74
2022-12-01T06:17:40.505Z,5.73
2022-12-01T06:18:11.784Z,5.73
2022-12-01T06:18:43.948Z,5.73
2022-12-01T06:19:16.149Z,5.70
2022-12-01T06:19:48.502Z,5.70
2022-12-01T06:20:20.372Z,5.70
2022-12-01T06:20:52.495Z,5.66
2022-12-01T06:21:24.637Z,5.67
2022-12-01T06:21:56.781Z,5.64
2022-12-01T06:22:28.898Z,5.64
2022-12-01T06:23:01.056Z,5.66
2022-12-01T06:23:33.211Z,5.66
2022-12-01T06:24:05.433Z,5.63
2022-12-01T06:24:37.557Z,5.67
2022-12-01T06:25:09.648Z,5.66
2022-12-01T06:25:41.772Z,5.67
2022-12-01T06:26:13.861Z,5.68
2022-12-01T06:26:46.017Z,5.70
2022-12-01T06:27:18.163Z,5.70
2022-12-01T06:27:50.256Z,5.74
2022-12-01T06:28:22.369Z,5.71
2022-12-01T06:28:54.516Z,5.70
2022-12-01T06:29:26.657Z,5.70
2022-12-01T06:29:58.732Z,5.70
2022-12-01T06:30:30.828Z,5.68
2022-12-01T06:31:03.692Z,5.68
2022-12-01T06:31:35.153Z,5.64
2022-12-01T06:32:07.350Z,5.63
2022-12-01T06:32:39.449Z,5.63
2022-12-01T06:33:11.650Z,5.59
2022-12-01T06:33:43.772Z,5.57
2022-12-01T06:34:15.865Z,5.56
2022-12-01T06:34:48.077Z,5.55
2022-12-01T06:35:20.219Z,5.56
2022-12-01T06:35:52.327Z,5.56
2022-12-01T06:36:24.440Z,5.57
2022-12-01T06:36:56.554Z,5.56
2022-12-01T06:37:28.646Z,5.57
2022-12-01T06:38:00.752Z,5.57
2022-12-01T06:38:32.915Z,5.59
2022-12-01T06:39:05.075Z,5.60
2022-12-01T06:39:37.218Z,5.60
2022-12-01T06:40:09.360Z,5.60
2022-12-01T06:40:41.485Z,5.57
2022-12-01T06:41:13.714Z,5.56
2022-12-01T06:41:45.815Z,5.56
2022-12-01T06:42:17.916Z,5.56
2022-12-01T06:42:50.097Z,5.57
2022-12-01T06:43:22.224Z,5.57
2022-12-01T06:43:54.397Z,5.56
2022-12-01T06:44:26.555Z,5.56
2022-12-01T06:44:58.649Z,5.56
2022-12-01T06:45:30.790Z,5.57
2022-12-01T06:46:02.882Z,5.56
2022-12-01T06:46:35.139Z,5.55
2022-12-01T06:47:07.124Z,5.57
2022-12-01T06:47:39.286Z,5.56
2022-12-01T06:48:11.461Z,5.57
2022-12-01T06:48:43.646Z,5.53
2022-12-01T06:49:15.800Z,5.53
2022-12-01T06:49:48.250Z,5.50
2022-12-01T06:50:20.236Z,5.53
2022-12-01T06:50:52.405Z,5.52
2022-12-01T06:51:24.565Z,5.52
2022-12-01T06:51:56.679Z,5.50
2022-12-01T06:52:28.783Z,5.49
2022-12-01T06:53:00.938Z,5.48
2022-12-01T06:53:33.075Z,5.48
2022-12-01T06:54:05.749Z,5.49
2022-12-01T06:54:37.326Z,5.49
2022-12-01T06:55:09.440Z,5.50
2022-12-01T06:55:41.626Z,5.52
2022-12-01T06:56:13.772Z,5.50
2022-12-01T06:56:45.857Z,5.49
2022-12-01T06:57:17.948Z,5.49
2022-12-01T06:57:50.071Z,5.48
2022-12-01T06:58:22.175Z,5.46
2022-12-01T06:58:54.274Z,5.46
2022-12-01T06:59:26.378Z,5.45
2022-12-01T06:59:58.461Z,5.45
2022-12-01T07:00:30.619Z,5.46
2022-12-01T07:01:02.833Z,5.46
2022-12-01T07:01:35.060Z,5.46
2022-12-01T07:02:07.163Z,5.46
2022-12-01T07:02:39.299Z,5.46
2022-12-01T07:03:11.303Z,5.49
2022-12-01T07:03:43.412Z,5.49
2022-12-01T07:04:15.505Z,5.48
2022-12-01T07:04:47.707Z,5.49
2022-12-01T07:05:19.847Z,5.49
2022-12-01T07:05:51.945Z,5.46
2022-12-01T07:06:24.049Z,5.45
2022-12-01T07:06:56.172Z,5.45
2022-12-01T07:07:28.289Z,5.48
2022-12-01T07:08:00.435Z,5.49
2022-12-01T07:08:32.512Z,5.52